createdAt,value
2018-12-20T00:00:55.423Z,-0.25
2018-12-20T00:15:54.320Z,-0.11
2018-12-20T00:30:52.912Z,-0.05
2018-12-20T00:45:51.944Z,-0.08
2018-12-20T01:00:56.563Z,-0.10
2018-12-20T01:15:51.958Z,-0.17
2018-12-20T01:30:53.182Z,-0.22
2018-12-20T01:45:50.982Z,-0.38
2018-12-20T02:00:52.915Z,-0.47
2018-12-20T02:15:51.561Z,-1.18
2018-12-20T02:30:53.467Z,-1.26
2018-12-20T02:45:51.615Z,-1.53
2018-12-20T03:00:54.747Z,-1.09
2018-12-20T03:15:52.434Z,-0.86
2018-12-20T03:30:53.766Z,-0.78
2018-12-20T03:45:54.827Z,-0.63
2018-12-20T04:00:51.126Z,-0.58
2018-12-20T04:15:52.964Z,-1.09
2018-12-20T04:45:57.976Z,-0.64
2018-12-20T05:00:51.608Z,-0.64
2018-12-20T05:15:56.341Z,-0.58
2018-12-20T05:30:51.446Z,-0.57
2018-12-20T05:45:51.411Z,-0.46
2018-12-20T06:00:53.401Z,-0.35
2018-12-20T06:15:51.246Z,-0.31
2018-12-20T06:30:50.670Z,-0.30
2018-12-20T06:45:50.707Z,-0.91
2018-12-20T07:00:51.524Z,-0.78
2018-12-20T07:15:51.467Z,-0.47
2018-12-20T07:30:53.269Z,-0.24
2018-12-20T07:45:50.743Z,-0.20
2018-12-20T08:00:50.620Z,-0.18
2018-12-20T08:15:50.734Z,0.03
2018-12-20T08:30:51.083Z,0.23
2018-12-20T08:45:50.438Z,-0.03
2018-12-20T09:00:50.909Z,0.56
2018-12-20T09:15:53.203Z,0.90
2018-12-20T09:30:53.166Z,0.96
2018-12-20T09:45:53.102Z,1.14
2018-12-20T10:00:51.050Z,1.50
2018-12-20T10:15:50.910Z,1.51
2018-12-20T10:30:51.781Z,1.86
2018-12-20T10:45:51.225Z,2.26
2018-12-20T11:00:56.363Z,2.47
2018-12-20T11:15:51.038Z,2.60
2018-12-20T11:30:51.001Z,2.71
2018-12-20T11:45:51.443Z,2.99
2018-12-20T12:00:51.340Z,3.28
2018-12-20T12:15:51.372Z,3.20
2018-12-20T12:30:50.720Z,2.89
2018-12-20T12:45:52.493Z,2.94
2018-12-20T13:00:50.470Z,3.12
2018-12-20T13:15:54.055Z,2.89
2018-12-20T13:30:51.348Z,2.56
2018-12-20T13:45:53.381Z,2.25
2018-12-20T14:00:52.750Z,1.93
2018-12-20T14:15:50.793Z,1.72
2018-12-20T14:30:51.064Z,1.41
2018-12-20T14:45:51.556Z,0.78
2018-12-20T15:00:51.266Z,0.53
2018-12-20T15:15:50.878Z,0.53
2018-12-20T15:30:51.321Z,0.57
2018-12-20T15:45:54.230Z,0.62
2018-12-20T16:00:52.436Z,0.76
2018-12-20T16:15:51.129Z,0.62
2018-12-20T16:30:53.742Z,0.55
2018-12-20T16:45:53.891Z,0.15
2018-12-20T17:45:53.521Z,-0.40
2018-12-20T18:15:53.404Z,-0.18
2018-12-20T18:30:54.502Z,-0.28
2018-12-20T18:45:51.657Z,-0.40
2018-12-20T19:15:55.748Z,-0.23
2018-12-20T19:45:51.299Z,-0.25
2018-12-20T20:00:57.683Z,-0.37
2018-12-20T20:15:55.650Z,-0.26
2018-12-20T20:30:52.237Z,-0.03
2018-12-20T20:45:51.420Z,0.02
2018-12-20T21:00:57.052Z,0.05
2018-12-20T21:15:50.722Z,0.12
2018-12-20T21:30:50.789Z,0.25
2018-12-20T21:45:53.027Z,0.25
2018-12-20T22:00:59.162Z,-0.19
2018-12-20T22:15:56.006Z,-0.03
2018-12-20T22:30:51.211Z,0.01
2018-12-20T22:45:52.686Z,0.02
2018-12-20T23:00:56.284Z,-0.06
2018-12-20T23:15:50.679Z,-0.13
2018-12-20T23:30:50.971Z,-0.68
2018-12-20T23:45:50.996Z,-0.96
